Time;durP1;ratioP1;P1;durP2;ratioP2;P2;SDS_P1;SDS_P2;PMS_P1;PMS_P2;Temp;Humidity;BMP_temperature;BMP_pressure;BME280_temperature;BME280_humidity;BME280_pressure;Samples;Min_cycle;Max_cycle;Signal;HPM_P1;HPM_P2
2022/11/09 00:01:46;;;;;;;5.77;5.17;;;15.80;80.40;;;-142.21;100.00;112049.66;5012494;28;20447;-70
2022/11/09 00:04:15;;;;;;;6.10;4.77;;;15.90;80.40;;;-142.21;100.00;112049.66;5032232;28;20445;-70
2022/11/09 00:06:41;;;;;;;7.13;5.37;;;15.90;80.60;;;-142.21;100.00;112049.66;5032774;28;20529;-70
2022/11/09 00:09:09;;;;;;;6.23;5.40;;;15.80;80.80;;;-142.21;100.00;112049.66;5031788;28;20447;-70
2022/11/09 00:11:37;;;;;;;6.50;5.57;;;15.80;80.80;;;-142.21;100.00;112049.66;5005274;28;20502;-70
2022/11/09 00:14:05;;;;;;;7.03;5.63;;;15.80;81.20;;;-142.21;100.00;112049.66;4992843;28;20454;-70
2022/11/09 00:16:32;;;;;;;7.60;5.87;;;15.80;81.20;;;-142.21;100.00;112049.66;4993195;28;20454;-71
2022/11/09 00:18:59;;;;;;;9.13;6.43;;;15.80;81.60;;;-142.21;100.00;112049.66;5012919;28;20546;-70
2022/11/09 00:21:28;;;;;;;6.80;5.67;;;15.80;82.60;;;-142.21;100.00;112049.66;5001756;28;20446;-70
2022/11/09 00:23:55;;;;;;;7.57;5.47;;;15.80;82.00;;;-142.21;100.00;112049.66;4993066;28;20447;-70
2022/11/09 00:26:22;;;;;;;8.97;5.53;;;15.90;82.30;;;-142.21;100.00;112049.66;4997943;28;20972;-70
2022/11/09 00:28:51;;;;;;;5.87;4.83;;;15.80;82.20;;;-142.21;100.00;112049.66;5012522;28;20957;-71
2022/11/09 00:31:22;;;;;;;8.20;4.80;;;15.90;82.20;;;-142.21;100.00;112049.66;5012037;28;20580;-70
2022/11/09 00:33:49;;;;;;;6.97;4.90;;;15.90;82.20;;;-142.21;100.00;112049.66;5012403;28;20452;-70
2022/11/09 00:36:17;;;;;;;7.20;5.00;;;15.90;82.20;;;-142.21;100.00;112049.66;5011671;28;20445;-70
2022/11/09 00:38:50;;;;;;;6.63;4.50;;;15.90;82.40;;;-142.21;100.00;112049.66;5012316;28;20442;-71
2022/11/09 00:41:17;;;;;;;10.07;5.10;;;15.90;82.40;;;-142.21;100.00;112049.66;5011831;28;20433;-70
2022/11/09 00:43:44;;;;;;;6.17;4.77;;;15.80;82.40;;;-142.21;100.00;112049.66;5012100;28;20534;-71
2022/11/09 00:46:12;;;;;;;7.23;4.80;;;15.80;82.80;;;-142.21;100.00;112049.66;5011592;28;20448;-70
2022/11/09 00:48:39;;;;;;;6.27;4.80;;;15.80;83.00;;;-142.21;100.00;112049.66;5012266;28;20536;-71
2022/11/09 00:51:06;;;;;;;6.30;5.07;;;15.80;82.60;;;-142.21;100.00;112049.66;5011442;28;20581;-70
2022/11/09 00:53:34;;;;;;;6.23;4.90;;;15.80;82.90;;;-142.21;100.00;112049.66;4997614;28;20994;-70
2022/11/09 00:56:06;;;;;;;6.30;4.77;;;15.80;83.10;;;-142.21;100.00;112049.66;4992416;28;20919;-70
2022/11/09 00:58:37;;;;;;;5.73;5.10;;;15.90;83.10;;;-142.21;100.00;112049.66;5006084;28;20987;-70
2022/11/09 01:01:09;;;;;;;6.63;4.70;;;15.90;83.00;;;-142.21;100.00;112049.66;4997259;28;20439;-71
2022/11/09 01:03:40;;;;;;;6.70;4.83;;;15.80;83.10;;;-142.21;100.00;112049.66;4974746;28;20457;-70
2022/11/09 01:06:08;;;;;;;6.23;4.50;;;15.80;83.10;;;-142.21;100.00;112049.66;5002046;28;20466;-70
2022/11/09 01:08:36;;;;;;;8.10;4.80;;;15.90;83.10;;;-142.21;100.00;112049.66;5002519;28;20443;-70
2022/11/09 01:11:08;;;;;;;7.50;4.83;;;15.90;83.00;;;-142.21;100.00;112049.66;4992422;28;20530;-70
2022/11/09 01:13:37;;;;;;;6.70;5.30;;;15.90;83.30;;;-142.21;100.00;112049.66;5008746;28;20442;-70
2022/11/09 01:16:09;;;;;;;6.63;5.70;;;15.80;83.60;;;-142.21;100.00;112049.66;5016244;28;20450;-70
2022/11/09 01:18:36;;;;;;;5.80;5.17;;;15.60;83.80;;;-142.21;100.00;112049.66;4999358;28;20439;-71
2022/11/09 01:21:07;;;;;;;9.70;6.50;;;15.50;84.40;;;-142.21;100.00;112049.66;4996621;28;20454;-70
2022/11/09 01:23:34;;;;;;;8.77;5.40;;;15.40;84.60;;;-142.21;100.00;112049.66;5008310;28;20442;-71
2022/11/09 01:26:08;;;;;;;6.40;5.43;;;15.50;84.50;;;-142.21;100.00;112049.66;5015805;28;20544;-71
2022/11/09 01:28:36;;;;;;;7.07;5.10;;;15.60;84.50;;;-142.21;100.00;112049.66;5015903;28;20431;-70
2022/11/09 01:31:06;;;;;;;8.83;5.57;;;15.60;84.30;;;-142.21;100.00;112049.66;5015849;28;20552;-70
2022/11/09 01:33:33;;;;;;;11.80;5.80;;;15.60;84.40;;;-142.21;100.00;112049.66;5007363;28;20451;-70
2022/11/09 01:36:03;;;;;;;7.17;5.40;;;15.60;85.20;;;-142.21;100.00;112049.66;4996279;28;20452;-70
2022/11/09 01:38:30;;;;;;;5.93;4.97;;;15.70;84.40;;;-142.21;100.00;112049.66;4995267;28;20446;-70
2022/11/09 01:40:57;;;;;;;7.27;5.20;;;15.70;84.20;;;-142.21;100.00;112049.66;4996210;28;20444;-70
2022/11/09 01:43:26;;;;;;;6.40;5.27;;;15.70;84.20;;;-142.21;100.00;112049.66;5008764;28;20474;-70
2022/11/09 01:46:01;;;;;;;7.30;5.53;;;15.70;84.30;;;-142.21;100.00;112049.66;4997486;28;20455;-70
2022/11/09 01:48:38;;;;;;;6.40;5.23;;;15.70;84.50;;;-142.21;100.00;112049.66;4995287;28;20471;-71
2022/11/09 01:51:13;;;;;;;9.23;5.00;;;15.70;84.40;;;-142.21;100.00;112049.66;4995098;28;20466;-71
2022/11/09 01:53:49;;;;;;;7.27;5.33;;;15.70;84.50;;;-142.21;100.00;112049.66;5011430;28;20464;-71
2022/11/09 01:56:17;;;;;;;7.20;4.97;;;15.60;85.50;;;-142.21;100.00;112049.66;5014378;28;20440;-71
2022/11/09 01:58:53;;;;;;;6.43;5.13;;;15.60;85.10;;;-142.21;100.00;112049.66;5015026;28;20445;-71
2022/11/09 02:01:21;;;;;;;5.73;4.87;;;15.60;85.50;;;-142.21;100.00;112049.66;5014807;28;20426;-71
2022/11/09 02:03:55;;;;;;;6.10;4.87;;;15.60;85.50;;;-142.21;100.00;112049.66;4998890;28;20473;-71
2022/11/09 02:06:27;;;;;;;7.40;5.33;;;15.50;85.50;;;-142.21;100.00;112049.66;4962420;28;20442;-71
2022/11/09 02:09:00;;;;;;;6.27;4.83;;;15.40;85.80;;;-142.21;100.00;112049.66;5015231;28;20426;-70
2022/11/09 02:11:29;;;;;;;8.13;5.03;;;15.40;86.30;;;-142.21;100.00;112049.66;5014351;28;20497;-70
2022/11/09 02:14:00;;;;;;;9.47;5.50;;;15.30;86.60;;;-142.21;100.00;112049.66;5014635;28;20449;-70
2022/11/09 02:16:30;;;;;;;7.23;5.67;;;15.30;87.00;;;-142.21;100.00;112049.66;5014224;28;20438;-70
2022/11/09 02:19:00;;;;;;;6.40;5.00;;;15.20;87.30;;;-142.21;100.00;112049.66;5014877;28;20468;-70
2022/11/09 02:21:31;;;;;;;7.37;5.33;;;15.20;87.20;;;-142.21;100.00;112049.66;5013890;28;20789;-70
2022/11/09 02:23:59;;;;;;;5.23;4.73;;;15.30;87.00;;;-142.21;100.00;112049.66;5002095;28;20533;-70
2022/11/09 02:26:32;;;;;;;6.67;5.40;;;15.40;86.80;;;-142.21;100.00;112049.66;4999826;28;20458;-70
2022/11/09 02:29:05;;;;;;;7.23;5.43;;;15.40;86.40;;;-142.21;100.00;112049.66;4995558;28;20423;-70
2022/11/09 02:31:38;;;;;;;5.60;5.00;;;15.40;86.40;;;-142.21;100.00;112049.66;4994491;28;20502;-70
2022/11/09 02:34:10;;;;;;;8.03;5.20;;;15.50;86.60;;;-142.21;100.00;112049.66;4997215;28;20452;-70
2022/11/09 02:36:38;;;;;;;7.43;5.20;;;15.50;86.30;;;-142.21;100.00;112049.66;5009971;28;20439;-71
2022/11/09 02:39:06;;;;;;;7.63;5.43;;;15.50;87.10;;;-142.21;100.00;112049.66;4995165;28;20813;-71
2022/11/09 02:41:42;;;;;;;6.37;5.57;;;15.50;86.40;;;-142.21;100.00;112049.66;4994417;28;20443;-71
2022/11/09 02:44:10;;;;;;;6.63;5.27;;;15.50;86.60;;;-142.21;100.00;112049.66;5013319;28;20448;-70
2022/11/09 02:46:37;;;;;;;6.70;5.07;;;15.50;86.40;;;-142.21;100.00;112049.66;5013981;28;20454;-70
2022/11/09 02:49:05;;;;;;;5.77;5.20;;;15.60;86.50;;;-142.21;100.00;112049.66;5013882;28;20474;-71
2022/11/09 02:51:32;;;;;;;5.87;5.20;;;15.60;86.70;;;-142.21;100.00;112049.66;5013288;28;20494;-70
2022/11/09 02:54:00;;;;;;;5.70;4.80;;;15.60;87.00;;;-142.21;100.00;112049.66;5014106;28;20450;-70
2022/11/09 02:56:28;;;;;;;5.40;4.90;;;15.50;87.30;;;-142.21;100.00;112049.66;5013213;28;20449;-70
2022/11/09 02:58:55;;;;;;;7.20;5.47;;;15.50;87.50;;;-142.21;100.00;112049.66;5014211;28;20480;-70
2022/11/09 03:01:23;;;;;;;7.53;5.83;;;15.50;87.70;;;-142.21;100.00;112049.66;5012376;28;20448;-69
2022/11/09 03:03:50;;;;;;;5.97;5.40;;;15.50;87.90;;;-142.21;100.00;112049.66;5013389;28;20533;-70
2022/11/09 03:06:17;;;;;;;6.73;5.27;;;15.50;88.20;;;-142.21;100.00;112049.66;5013116;28;20445;-70
2022/11/09 03:08:44;;;;;;;8.27;5.33;;;15.50;89.10;;;-142.21;100.00;112049.66;4994380;28;20854;-70
2022/11/09 03:11:12;;;;;;;6.20;5.17;;;15.60;89.20;;;-142.21;100.00;112049.66;4994055;28;20509;-70
2022/11/09 03:13:39;;;;;;;6.20;4.87;;;15.50;88.70;;;-142.21;100.00;112049.66;5013668;28;20452;-70
2022/11/09 03:16:08;;;;;;;5.47;4.97;;;15.50;89.00;;;-142.21;100.00;112049.66;5013393;28;20450;-70
2022/11/09 03:18:36;;;;;;;6.30;4.60;;;15.60;89.80;;;-142.21;100.00;112049.66;5010086;28;20450;-70
2022/11/09 03:21:04;;;;;;;5.70;4.53;;;15.60;88.90;;;-142.21;100.00;112049.66;5013708;28;20480;-70
2022/11/09 03:23:34;;;;;;;7.33;4.63;;;15.60;89.00;;;-142.21;100.00;112049.66;5012999;28;20450;-70
2022/11/09 03:26:01;;;;;;;5.60;4.07;;;15.60;88.90;;;-142.21;100.00;112049.66;5012921;28;20442;-70
2022/11/09 03:28:29;;;;;;;5.13;4.63;;;15.60;89.10;;;-142.21;100.00;112049.66;4995478;28;20447;-70
2022/11/09 03:30:57;;;;;;;6.13;3.93;;;15.60;89.40;;;-142.21;100.00;112049.66;4993820;28;20447;-70
2022/11/09 03:33:24;;;;;;;6.43;4.03;;;15.60;89.70;;;-142.21;100.00;112049.66;5002440;28;20469;-70
2022/11/09 03:35:51;;;;;;;4.60;4.10;;;15.70;89.80;;;-142.21;100.00;112049.66;5013057;28;20486;-70
2022/11/09 03:38:18;;;;;;;6.07;3.83;;;15.80;89.40;;;-142.21;100.00;112049.66;5012462;28;20450;-70
2022/11/09 03:40:45;;;;;;;6.03;4.20;;;15.90;89.20;;;-142.21;100.00;112049.66;5013649;28;20469;-70
2022/11/09 03:43:12;;;;;;;4.77;4.20;;;15.90;88.80;;;-142.21;100.00;112049.66;5013140;28;20446;-70
2022/11/09 03:45:41;;;;;;;4.90;4.27;;;16.00;88.80;;;-142.21;100.00;112049.66;5013202;28;20450;-70
2022/11/09 03:48:08;;;;;;;5.00;4.10;;;16.00;88.90;;;-142.21;100.00;112049.66;5012530;28;20470;-70
2022/11/09 03:50:39;;;;;;;5.90;4.20;;;16.00;88.70;;;-142.21;100.00;112049.66;5012403;28;20454;-70
2022/11/09 03:53:07;;;;;;;5.80;4.10;;;16.00;88.30;;;-142.21;100.00;112049.66;5012923;28;20470;-70
2022/11/09 03:55:34;;;;;;;5.37;3.90;;;16.10;88.20;;;-142.21;100.00;112049.66;5012470;28;20533;-70
2022/11/09 03:58:01;;;;;;;4.77;4.27;;;16.10;88.10;;;-142.21;100.00;112049.66;5012646;28;20454;-70
2022/11/09 04:00:28;;;;;;;6.07;4.10;;;16.10;88.10;;;-142.21;100.00;112049.66;5012353;28;20960;-70
2022/11/09 04:02:57;;;;;;;4.43;4.03;;;16.10;88.00;;;-142.21;100.00;112049.66;4999888;28;20530;-70
2022/11/09 04:05:24;;;;;;;5.50;4.17;;;16.10;87.90;;;-142.21;100.00;112049.66;4999440;28;20442;-70
2022/11/09 04:07:55;;;;;;;4.37;3.97;;;16.10;87.90;;;-142.21;100.00;112049.66;5012163;28;20454;-70
2022/11/09 04:10:24;;;;;;;6.40;4.17;;;16.10;88.00;;;-142.21;100.00;112049.66;5012140;28;20564;-71
2022/11/09 04:12:51;;;;;;;6.50;4.10;;;16.10;88.00;;;-142.21;100.00;112049.66;5012684;28;20512;-70
2022/11/09 04:15:19;;;;;;;5.10;4.30;;;16.10;88.20;;;-142.21;100.00;112049.66;5011841;28;20949;-70
2022/11/09 04:17:57;;;;;;;5.37;3.90;;;16.00;88.50;;;-142.21;100.00;112049.66;5009131;28;20935;-70
2022/11/09 04:20:25;;;;;;;6.67;4.17;;;16.00;89.70;;;-142.21;100.00;112049.66;5012064;28;20461;-70
2022/11/09 04:23:01;;;;;;;4.37;3.80;;;15.90;88.80;;;-142.21;100.00;112049.66;5012712;28;20442;-70
2022/11/09 04:25:31;;;;;;;3.43;3.13;;;15.90;89.10;;;-142.21;100.00;112049.66;5011948;28;20802;-70
2022/11/09 04:28:00;;;;;;;4.87;3.33;;;15.90;89.10;;;-142.21;100.00;112049.66;5012411;28;20438;-70
2022/11/09 04:30:29;;;;;;;8.37;4.00;;;15.90;89.30;;;-142.21;100.00;112049.66;5011762;28;20441;-70
2022/11/09 04:33:00;;;;;;;5.30;3.40;;;15.90;89.70;;;-142.21;100.00;112049.66;5012213;28;20848;-70
2022/11/09 04:35:29;;;;;;;4.50;3.67;;;15.90;89.70;;;-142.21;100.00;112049.66;5010060;28;20525;-70
2022/11/09 04:37:59;;;;;;;3.77;3.37;;;15.90;89.70;;;-142.21;100.00;112049.66;5008175;28;20450;-70
2022/11/09 04:40:30;;;;;;;5.63;3.40;;;15.90;89.60;;;-142.21;100.00;112049.66;5009380;28;20457;-70
2022/11/09 04:43:00;;;;;;;4.67;3.73;;;15.90;89.70;;;-142.21;100.00;112049.66;4992937;28;20952;-70
2022/11/09 04:45:27;;;;;;;3.40;3.00;;;15.90;89.90;;;-142.21;100.00;112049.66;4991673;28;20431;-70
2022/11/09 04:47:59;;;;;;;4.17;3.10;;;15.90;90.00;;;-142.21;100.00;112049.66;4999265;28;20455;-70
2022/11/09 04:50:27;;;;;;;4.10;3.20;;;15.90;90.10;;;-142.21;100.00;112049.66;4998947;28;20456;-70
2022/11/09 04:52:54;;;;;;;3.67;3.07;;;15.90;90.20;;;-142.21;100.00;112049.66;4999274;28;20828;-70
2022/11/09 04:55:21;;;;;;;3.00;2.70;;;15.90;90.20;;;-142.21;100.00;112049.66;4998915;28;20549;-70
2022/11/09 04:57:48;;;;;;;4.70;2.67;;;15.90;90.30;;;-142.21;100.00;112049.66;5017177;28;20446;-70
2022/11/09 05:00:16;;;;;;;3.00;2.40;;;15.90;90.30;;;-142.21;100.00;112049.66;5018447;28;20455;-70
2022/11/09 05:02:43;;;;;;;3.87;2.50;;;15.90;90.30;;;-142.21;100.00;112049.66;5018854;28;20437;-70
2022/11/09 05:05:12;;;;;;;2.50;2.30;;;16.00;90.40;;;-142.21;100.00;112049.66;5018931;28;20805;-70
2022/11/09 05:07:39;;;;;;;1.73;1.53;;;16.00;90.40;;;-142.21;100.00;112049.66;5013974;28;20464;-70
2022/11/09 05:10:07;;;;;;;2.70;1.83;;;16.00;90.40;;;-142.21;100.00;112049.66;5018780;28;20529;-71
2022/11/09 05:12:34;;;;;;;3.30;2.20;;;16.10;90.50;;;-142.21;100.00;112049.66;5017859;28;20480;-70
2022/11/09 05:15:01;;;;;;;2.30;2.00;;;16.20;90.30;;;-142.21;100.00;112049.66;5018208;28;20446;-70
2022/11/09 05:17:28;;;;;;;1.90;1.80;;;16.20;90.20;;;-142.21;100.00;112049.66;5010931;28;20446;-70
2022/11/09 05:19:55;;;;;;;3.57;1.80;;;16.20;90.20;;;-142.21;100.00;112049.66;5000241;28;20454;-70
2022/11/09 05:25:09;;;;;;;2.83;1.90;;;16.30;90.20;;;-142.21;100.00;112049.66;4998959;28;20410;-70
2022/11/09 05:27:38;;;;;;;2.53;1.83;;;16.30;90.00;;;-142.21;100.00;112049.66;5005642;28;20446;-70
2022/11/09 05:30:07;;;;;;;1.80;1.70;;;16.40;90.00;;;-142.21;100.00;112049.66;4998220;28;20447;-70
2022/11/09 05:32:39;;;;;;;2.60;2.20;;;16.40;89.80;;;-142.21;100.00;112049.66;4998034;28;20496;-70
2022/11/09 05:35:08;;;;;;;3.57;1.83;;;16.40;89.70;;;-142.21;100.00;112049.66;4998891;28;20821;-71
2022/11/09 05:37:39;;;;;;;4.37;2.00;;;16.40;89.80;;;-142.21;100.00;112049.66;5016606;28;20438;-70
2022/11/09 05:40:08;;;;;;;3.57;3.20;;;16.40;89.80;;;-142.21;100.00;112049.66;5018434;28;20509;-71
2022/11/09 05:42:38;;;;;;;3.93;3.10;;;16.40;89.50;;;-142.21;100.00;112049.66;5014803;28;20446;-71
2022/11/09 05:45:07;;;;;;;4.10;3.10;;;16.40;89.90;;;-142.21;100.00;112049.66;4998446;28;20752;-71
2022/11/09 05:47:38;;;;;;;3.70;2.40;;;16.30;90.00;;;-142.21;100.00;112049.66;4998073;28;20943;-71
2022/11/09 05:50:08;;;;;;;3.93;2.67;;;16.30;90.20;;;-142.21;100.00;112049.66;5018362;28;20461;-71
2022/11/09 05:52:36;;;;;;;2.87;2.50;;;16.30;90.60;;;-142.21;100.00;112049.66;5017271;28;20485;-71
2022/11/09 05:55:05;;;;;;;3.10;2.80;;;16.30;90.20;;;-142.21;100.00;112049.66;5018665;28;20448;-71
2022/11/09 05:57:32;;;;;;;3.90;2.97;;;16.30;90.30;;;-142.21;100.00;112049.66;5017755;28;20469;-71
2022/11/09 05:59:59;;;;;;;4.77;3.00;;;16.20;90.60;;;-142.21;100.00;112049.66;5012292;28;20445;-71
2022/11/09 06:02:30;;;;;;;4.70;3.00;;;16.20;90.50;;;-142.21;100.00;112049.66;4995325;28;20538;-70
2022/11/09 06:04:58;;;;;;;3.77;2.80;;;16.20;90.50;;;-142.21;100.00;112049.66;4995489;28;20436;-71
2022/11/09 06:07:25;;;;;;;3.20;2.90;;;16.20;90.70;;;-142.21;100.00;112049.66;4995447;28;20447;-71
2022/11/09 06:09:53;;;;;;;3.70;3.20;;;16.10;90.70;;;-142.21;100.00;112049.66;4996563;28;20447;-71
2022/11/09 06:12:20;;;;;;;4.57;3.17;;;16.00;90.80;;;-142.21;100.00;112049.66;4997852;28;20473;-70
2022/11/09 06:14:48;;;;;;;3.70;2.87;;;16.10;91.00;;;-142.21;100.00;112049.66;4995371;28;20443;-70
2022/11/09 06:17:15;;;;;;;4.50;2.90;;;16.10;91.00;;;-142.21;100.00;112049.66;5002360;28;21021;-70
2022/11/09 06:19:42;;;;;;;4.00;2.30;;;16.10;90.90;;;-142.21;100.00;112049.66;4996451;28;20553;-70
2022/11/09 06:22:09;;;;;;;3.33;2.43;;;16.10;90.90;;;-142.21;100.00;112049.66;5014699;28;20474;-70
2022/11/09 06:24:36;;;;;;;3.53;2.47;;;16.20;90.80;;;-142.21;100.00;112049.66;5014573;28;20442;-70
2022/11/09 06:27:05;;;;;;;3.20;2.30;;;16.20;90.80;;;-142.21;100.00;112049.66;5013930;28;20911;-71
2022/11/09 06:29:33;;;;;;;2.67;2.10;;;16.10;90.80;;;-142.21;100.00;112049.66;5014594;28;21017;-70
2022/11/09 06:32:00;;;;;;;4.17;1.90;;;16.10;91.00;;;-142.21;100.00;112049.66;4994897;28;20461;-70
2022/11/09 06:34:29;;;;;;;2.73;1.60;;;16.00;91.00;;;-142.21;100.00;112049.66;5000979;28;20445;-70
2022/11/09 06:36:57;;;;;;;3.57;1.80;;;16.10;91.10;;;-142.21;100.00;112049.66;5013575;28;20450;-70
2022/11/09 06:39:24;;;;;;;3.10;1.80;;;16.00;91.10;;;-142.21;100.00;112049.66;5013921;28;20536;-70
2022/11/09 06:41:51;;;;;;;2.33;1.67;;;16.00;91.10;;;-142.21;100.00;112049.66;5008036;28;20530;-69
2022/11/09 06:44:20;;;;;;;2.03;1.80;;;16.10;91.00;;;-142.21;100.00;112049.66;4995204;28;20465;-70
2022/11/09 06:46:47;;;;;;;4.60;1.93;;;16.10;91.30;;;-142.21;100.00;112049.66;4994308;28;20447;-70
2022/11/09 06:49:14;;;;;;;3.07;2.10;;;16.10;91.00;;;-142.21;100.00;112049.66;4994503;28;20801;-70
2022/11/09 06:51:41;;;;;;;1.93;1.70;;;16.10;91.00;;;-142.21;100.00;112049.66;4998199;28;20530;-70
2022/11/09 06:54:08;;;;;;;3.20;2.10;;;16.10;91.00;;;-142.21;100.00;112049.66;5013706;28;20488;-70
2022/11/09 06:56:35;;;;;;;1.83;1.50;;;16.10;91.00;;;-142.21;100.00;112049.66;4993719;28;20493;-70
2022/11/09 06:59:02;;;;;;;2.23;1.57;;;16.10;90.80;;;-142.21;100.00;112049.66;4994456;28;20940;-70
2022/11/09 07:01:31;;;;;;;3.40;1.77;;;16.10;90.70;;;-142.21;100.00;112049.66;4996389;28;20489;-70
2022/11/09 07:03:58;;;;;;;2.00;1.53;;;16.10;90.60;;;-142.21;100.00;112049.66;5014116;28;20438;-70
2022/11/09 07:06:25;;;;;;;2.80;1.30;;;16.20;90.30;;;-142.21;100.00;112049.66;5002262;28;20945;-70
2022/11/09 07:08:55;;;;;;;1.97;1.30;;;16.10;90.20;;;-142.21;100.00;112049.66;4994464;28;20446;-70
2022/11/09 07:11:23;;;;;;;3.17;1.57;;;16.10;90.10;;;-142.21;100.00;112049.66;4977541;28;20482;-70
2022/11/09 07:13:50;;;;;;;1.67;1.47;;;16.10;90.10;;;-142.21;100.00;112049.66;5013522;28;20492;-70
2022/11/09 07:16:17;;;;;;;1.50;1.10;;;16.10;90.00;;;-142.21;100.00;112049.66;5012179;28;20446;-70
2022/11/09 07:18:46;;;;;;;1.10;1.00;;;16.10;89.80;;;-142.21;100.00;112049.66;4995554;28;20453;-71
2022/11/09 07:21:14;;;;;;;1.30;1.20;;;16.20;89.80;;;-142.21;100.00;112049.66;4994105;28;20449;-70
2022/11/09 07:23:42;;;;;;;1.27;1.13;;;16.10;88.80;;;-142.21;100.00;112049.66;5012737;28;20538;-70
2022/11/09 07:26:10;;;;;;;1.20;1.10;;;16.10;89.00;;;-142.21;100.00;112049.66;5011780;28;20447;-69
2022/11/09 07:28:37;;;;;;;1.20;1.10;;;16.10;88.60;;;-142.21;100.00;112049.66;5013012;28;20458;-70
2022/11/09 07:31:05;;;;;;;1.03;0.90;;;16.10;88.60;;;-142.21;100.00;112049.66;5014112;28;20822;-70
2022/11/09 07:33:32;;;;;;;0.80;0.80;;;16.00;88.80;;;-142.21;100.00;112049.66;5012767;28;20994;-70
2022/11/09 07:36:04;;;;;;;1.37;1.30;;;16.00;88.90;;;-142.21;100.00;112049.66;5013725;28;20461;-70
2022/11/09 07:38:32;;;;;;;2.20;1.10;;;16.00;89.30;;;-142.21;100.00;112049.66;5013992;28;20836;-69
2022/11/09 07:41:00;;;;;;;1.70;1.10;;;16.00;89.10;;;-142.21;100.00;112049.66;5011519;28;20448;-70
2022/11/09 07:43:27;;;;;;;1.10;1.10;;;16.00;88.90;;;-142.21;100.00;112049.66;5013431;28;20518;-70
2022/11/09 07:45:55;;;;;;;1.70;1.07;;;15.90;89.30;;;-142.21;100.00;112049.66;5012291;28;20457;-70
2022/11/09 07:48:22;;;;;;;2.23;1.10;;;16.00;89.50;;;-142.21;100.00;112049.66;5012201;28;21116;-70
2022/11/09 07:50:49;;;;;;;1.63;1.30;;;16.00;89.40;;;-142.21;100.00;112049.66;5012983;28;20513;-70
2022/11/09 07:53:19;;;;;;;1.30;1.20;;;16.00;89.30;;;-142.21;100.00;112049.66;5013019;28;20492;-70
2022/11/09 07:55:46;;;;;;;2.00;1.00;;;16.00;89.50;;;-142.21;100.00;112049.66;5009966;28;20552;-70
2022/11/09 07:58:15;;;;;;;1.33;1.23;;;16.10;89.70;;;-142.21;100.00;112049.66;4999888;28;20450;-70
2022/11/09 08:00:43;;;;;;;1.50;1.40;;;16.10;89.40;;;-142.21;100.00;112049.66;4997697;28;20449;-70
2022/11/09 08:03:11;;;;;;;1.60;1.40;;;16.20;89.30;;;-142.21;100.00;112049.66;4994794;28;20447;-70
2022/11/09 08:05:39;;;;;;;1.30;1.20;;;16.20;89.10;;;-142.21;100.00;112049.66;5012442;28;20441;-71
2022/11/09 08:08:10;;;;;;;3.90;1.30;;;16.30;89.90;;;-142.21;100.00;112049.66;4996431;28;20450;-70
2022/11/09 08:10:40;;;;;;;1.40;1.30;;;16.30;89.10;;;-142.21;100.00;112049.66;4992607;28;21027;-70
2022/11/09 08:13:12;;;;;;;1.73;1.40;;;16.30;89.00;;;-142.21;100.00;112049.66;4995716;28;20493;-69
2022/11/09 08:15:41;;;;;;;2.23;1.20;;;16.40;89.10;;;-142.21;100.00;112049.66;4999718;28;20445;-69
2022/11/09 08:18:12;;;;;;;1.30;1.20;;;16.50;89.20;;;-142.21;100.00;112049.66;5000013;28;20542;-70
2022/11/09 08:20:39;;;;;;;2.00;1.30;;;16.60;89.10;;;-142.21;100.00;112049.66;4992389;28;21059;-70
2022/11/09 08:23:07;;;;;;;2.20;1.40;;;16.60;88.90;;;-142.21;100.00;112049.66;4991965;28;20443;-71
2022/11/09 08:25:35;;;;;;;1.40;1.30;;;16.60;89.20;;;-142.21;100.00;112049.66;4992627;28;20435;-70
2022/11/09 08:28:04;;;;;;;1.13;1.03;;;16.70;88.90;;;-142.21;100.00;112049.66;4992873;28;20470;-70
2022/11/09 08:30:32;;;;;;;1.30;1.20;;;16.70;88.80;;;-142.21;100.00;112049.66;4992485;28;20479;-70
2022/11/09 08:33:01;;;;;;;1.63;1.53;;;16.80;89.30;;;-142.21;100.00;112049.66;4993103;28;20487;-70
2022/11/09 08:35:29;;;;;;;1.00;1.00;;;16.90;88.70;;;-142.21;100.00;112049.66;4992508;28;20533;-70
2022/11/09 08:38:02;;;;;;;1.30;1.07;;;16.90;88.70;;;-142.21;100.00;112049.66;4992711;28;20478;-70
2022/11/09 08:40:31;;;;;;;1.30;1.20;;;17.00;88.70;;;-142.21;100.00;112049.66;4992179;28;20427;-70
2022/11/09 08:43:05;;;;;;;5.00;1.83;;;17.10;88.70;;;-142.21;100.00;112049.66;4993040;28;20445;-70
2022/11/09 08:45:34;;;;;;;1.10;1.07;;;17.20;88.10;;;-142.21;100.00;112049.66;4992392;28;20809;-70
2022/11/09 08:48:03;;;;;;;2.03;1.20;;;17.20;88.10;;;-142.21;100.00;112049.66;4992734;28;20469;-70
2022/11/09 08:50:32;;;;;;;1.57;1.27;;;17.30;88.50;;;-142.21;100.00;112049.66;4992216;28;20550;-69
2022/11/09 08:53:00;;;;;;;2.40;1.30;;;17.40;88.00;;;-142.21;100.00;112049.66;4992249;28;20487;-71
2022/11/09 08:55:27;;;;;;;1.77;1.60;;;17.40;87.90;;;-142.21;100.00;112049.66;4993055;28;20547;-70
2022/11/09 08:57:56;;;;;;;2.93;1.37;;;17.50;87.60;;;-142.21;100.00;112049.66;4992918;28;20449;-70
2022/11/09 09:00:25;;;;;;;1.50;1.40;;;17.50;86.90;;;-142.21;100.00;112049.66;4992518;28;20443;-71
2022/11/09 09:02:53;;;;;;;2.60;1.50;;;17.50;87.50;;;-142.21;100.00;112049.66;4992352;28;20530;-70
2022/11/09 09:05:22;;;;;;;2.40;1.60;;;17.60;87.00;;;-142.21;100.00;112049.66;4992408;28;20472;-70
2022/11/09 09:07:49;;;;;;;4.93;1.37;;;17.70;87.40;;;-142.21;100.00;112049.66;4992180;28;20681;-69
2022/11/09 09:10:16;;;;;;;2.50;1.40;;;17.70;87.20;;;-142.21;100.00;112049.66;4992426;28;20478;-70
2022/11/09 09:12:44;;;;;;;1.70;1.60;;;17.80;87.30;;;-142.21;100.00;112049.66;4992076;28;20796;-70
2022/11/09 09:15:11;;;;;;;2.77;1.60;;;17.90;87.50;;;-142.21;100.00;112049.66;4992737;28;20474;-70
2022/11/09 09:17:39;;;;;;;1.40;1.30;;;17.90;87.20;;;-142.21;100.00;112049.66;5001009;28;20441;-70
2022/11/09 09:20:07;;;;;;;1.70;1.60;;;18.00;87.00;;;-142.21;100.00;112049.66;5011891;28;20544;-70
2022/11/09 09:22:34;;;;;;;1.60;1.50;;;18.10;86.90;;;-142.21;100.00;112049.66;5011567;28;20865;-70
2022/11/09 09:25:02;;;;;;;2.30;1.70;;;18.20;86.60;;;-142.21;100.00;112049.66;5012168;28;20982;-70
2022/11/09 09:27:29;;;;;;;1.50;1.40;;;18.30;86.60;;;-142.21;100.00;112049.66;5011855;28;20457;-70
2022/11/09 09:29:56;;;;;;;1.30;1.20;;;18.40;86.50;;;-142.21;100.00;112049.66;5012367;28;20437;-70
2022/11/09 09:32:24;;;;;;;1.67;1.43;;;18.50;85.90;;;-142.21;100.00;112049.66;5011938;28;20243;-69
2022/11/09 09:34:52;;;;;;;2.03;1.43;;;18.70;85.80;;;-142.21;100.00;112049.66;5014733;28;20489;-70
2022/11/09 09:37:20;;;;;;;1.30;1.20;;;18.80;85.30;;;-142.21;100.00;112049.66;5016054;28;20472;-69
2022/11/09 09:39:47;;;;;;;1.20;1.10;;;19.00;85.10;;;-142.21;100.00;112049.66;5014891;28;20450;-70
2022/11/09 09:42:18;;;;;;;1.93;1.23;;;19.10;85.00;;;-142.21;100.00;112049.66;5015901;28;20250;-70
2022/11/09 09:44:54;;;;;;;1.87;1.20;;;19.20;84.40;;;-142.21;100.00;112049.66;5016092;28;20921;-70
2022/11/09 09:47:33;;;;;;;1.53;1.10;;;19.40;84.20;;;-142.21;100.00;112049.66;5015692;28;20521;-70
2022/11/09 09:50:09;;;;;;;1.20;1.10;;;19.50;83.40;;;-142.21;100.00;112049.66;5014804;28;20458;-69
2022/11/09 09:52:44;;;;;;;1.37;1.20;;;19.60;82.90;;;-142.21;100.00;112049.66;5015283;28;20293;-71
2022/11/09 09:55:24;;;;;;;2.33;1.30;;;19.70;82.90;;;-142.21;100.00;112049.66;5015183;28;20469;-70
2022/11/09 09:57:55;;;;;;;1.40;1.30;;;19.80;81.80;;;-142.21;100.00;112049.66;5015281;28;20278;-70
2022/11/09 10:00:25;;;;;;;1.40;1.07;;;19.80;80.50;;;-142.21;100.00;112049.66;5015475;28;20278;-70
2022/11/09 10:02:53;;;;;;;2.97;1.20;;;19.90;81.00;;;-142.21;100.00;112049.66;5014885;28;20752;-70